Time;durP1;ratioP1;P1;durP2;ratioP2;P2;SDS_P1;SDS_P2;PMS_P1;PMS_P2;Temp;Humidity;BMP_temperature;BMP_pressure;BME280_temperature;BME280_humidity;BME280_pressure;Samples;Min_cycle;Max_cycle;Signal;HPM_P1;HPM_P2
2022/12/02 00:00:25;;;;;;;42.60;18.40;;;;;;;-0.31;98.37;102106.94;104644;1269;72954;-75
2022/12/02 00:03:19;;;;;;;33.00;17.20;;;;;;;-0.18;100.00;102105.34;104896;1272;61297;-75
2022/12/02 00:05:51;;;;;;;36.50;18.30;;;;;;;-0.16;99.10;102108.92;104984;1272;61693;-75
2022/12/02 00:08:28;;;;;;;35.70;18.60;;;;;;;-0.14;98.20;102109.42;104969;1272;73443;-75
2022/12/02 00:11:01;;;;;;;37.40;18.60;;;;;;;-0.12;99.06;102108.38;104802;1280;70512;-75
2022/12/02 00:13:43;;;;;;;42.30;18.80;;;;;;;0.01;100.00;102111.04;104754;1281;67855;-75
2022/12/02 00:16:21;;;;;;;33.20;17.40;;;;;;;0.04;100.00;102116.16;104953;1276;63254;-76
2022/12/02 00:18:51;;;;;;;42.00;18.80;;;;;;;0.03;98.85;102119.77;104847;1275;60875;-76
2022/12/02 00:21:21;;;;;;;37.30;18.60;;;;;;;-0.05;99.13;102121.88;104843;1278;59474;-74
2022/12/02 00:23:50;;;;;;;38.60;19.30;;;;;;;-0.03;100.00;102116.73;104789;1281;71104;-74
2022/12/02 00:26:19;;;;;;;34.50;17.90;;;;;;;0.07;99.94;102122.48;104983;1269;69743;-74
2022/12/02 00:28:48;;;;;;;34.90;18.20;;;;;;;0.14;99.05;102121.57;105049;1279;67944;-74
2022/12/02 00:31:17;;;;;;;33.60;17.90;;;;;;;0.14;98.20;102120.89;105030;1274;71460;-74
2022/12/02 00:33:46;;;;;;;35.20;17.50;;;;;;;0.09;97.30;102115.95;105032;1281;59924;-78
2022/12/02 00:36:15;;;;;;;35.80;18.50;;;;;;;0.04;96.64;102114.80;104921;1270;59114;-78
2022/12/02 00:38:44;;;;;;;35.50;17.70;;;;;;;-0.07;97.28;102110.92;104909;1272;72947;-75
2022/12/02 00:41:13;;;;;;;32.20;16.50;;;;;;;-0.07;97.90;102107.84;104865;1272;71146;-74
2022/12/02 00:46:31;;;;;;;36.60;17.10;;;;;;;-0.09;97.55;102102.88;104925;1278;71711;-73
2022/12/02 00:49:11;;;;;;;34.90;18.70;;;;;;;-0.11;98.62;102104.45;104879;1281;62473;-74
2022/12/02 00:51:41;;;;;;;32.30;17.80;;;;;;;-0.12;97.66;102105.81;105156;1271;60391;-76
2022/12/02 00:54:12;;;;;;;38.40;18.40;;;;;;;-0.11;98.35;102103.58;105090;1267;72599;-81
2022/12/02 00:56:41;;;;;;;41.60;19.90;;;;;;;-0.07;97.84;102099.79;105154;1272;70700;-74
2022/12/02 00:59:10;;;;;;;37.50;19.40;;;;;;;-0.09;98.05;102099.46;104907;1274;68711;-74
2022/12/02 01:01:43;;;;;;;38.50;20.10;;;;;;;-0.08;97.76;102099.79;104758;1278;74811;-72
2022/12/02 01:04:12;;;;;;;37.80;19.80;;;;;;;-0.01;99.66;102095.30;105000;1279;59390;-73
2022/12/02 01:06:41;;;;;;;31.70;17.40;;;;;;;-0.06;97.69;102089.51;104878;1279;59781;-73
2022/12/02 01:09:10;;;;;;;34.80;19.30;;;;;;;-0.06;98.26;102081.98;105062;1273;70889;-74
2022/12/02 01:11:39;;;;;;;37.60;17.50;;;;;;;-0.05;97.93;102080.27;104880;1275;69606;-73
2022/12/02 01:14:10;;;;;;;39.00;19.00;;;;;;;-0.09;97.28;102075.14;105019;1272;70659;-73
2022/12/02 01:16:41;;;;;;;32.80;18.80;;;;;;;-0.08;98.97;102076.67;104813;1275;73703;-73
2022/12/02 01:19:10;;;;;;;42.40;18.60;;;;;;;-0.06;99.94;102071.35;104966;1274;60063;-72
2022/12/02 01:21:39;;;;;;;39.20;18.00;;;;;;;-0.09;98.99;102069.83;105060;1273;58996;-73
2022/12/02 01:24:08;;;;;;;35.80;18.80;;;;;;;-0.06;97.95;102067.59;104885;1271;71828;-72
2022/12/02 01:26:38;;;;;;;36.00;18.30;;;;;;;-0.14;98.08;102071.73;104979;1272;69089;-72
2022/12/02 01:29:07;;;;;;;37.10;18.30;;;;;;;-0.14;98.04;102067.46;104963;1275;67814;-72
2022/12/02 01:31:37;;;;;;;39.30;19.20;;;;;;;-0.14;97.73;102064.56;104846;1281;73374;-72
2022/12/02 01:34:07;;;;;;;34.40;17.20;;;;;;;-0.20;99.47;102064.42;104967;1268;61258;-74
2022/12/02 01:36:36;;;;;;;31.70;18.00;;;;;;;-0.23;99.45;102061.20;104908;1269;60999;-74
2022/12/02 01:39:05;;;;;;;35.20;17.60;;;;;;;-0.10;98.81;102059.22;105178;1281;73782;-73
2022/12/02 01:41:35;;;;;;;30.60;16.60;;;;;;;-0.09;98.85;102055.95;105180;1281;72231;-72
2022/12/02 01:44:04;;;;;;;33.30;17.60;;;;;;;-0.08;98.71;102053.89;104946;1281;70095;-75
2022/12/02 01:46:33;;;;;;;34.00;17.10;;;;;;;-0.09;98.45;102049.27;105031;1268;71756;-76
2022/12/02 01:49:02;;;;;;;31.80;17.20;;;;;;;-0.09;99.83;102049.29;104924;1275;61391;-76
2022/12/02 01:51:31;;;;;;;34.20;17.60;;;;;;;-0.07;99.21;102046.87;104736;1271;59443;-74
2022/12/02 01:54:00;;;;;;;32.60;15.90;;;;;;;-0.07;98.62;102047.05;104880;1281;73092;-74
2022/12/02 01:56:29;;;;;;;33.80;16.70;;;;;;;-0.03;98.73;102043.27;104869;1281;70890;-73
2022/12/02 01:58:58;;;;;;;31.80;17.00;;;;;;;-0.10;98.05;102043.64;104855;1278;71497;-73
2022/12/02 02:01:31;;;;;;;34.10;17.10;;;;;;;-0.12;98.84;102044.68;104873;1271;73172;-74
2022/12/02 02:04:02;;;;;;;36.40;17.00;;;;;;;-0.10;98.78;102041.58;105023;1281;62216;-74
2022/12/02 02:06:38;;;;;;;28.60;16.10;;;;;;;-0.10;99.07;102042.78;104911;1281;62133;-72
2022/12/02 02:09:07;;;;;;;35.00;16.20;;;;;;;-0.13;98.75;102041.27;104982;1272;73992;-73
2022/12/02 02:11:38;;;;;;;32.40;14.10;;;;;;;-0.08;98.15;102040.88;104814;1277;69470;-74
2022/12/02 02:14:12;;;;;;;34.90;16.40;;;;;;;-0.10;97.55;102041.76;104834;1273;68634;-74
2022/12/02 02:16:41;;;;;;;27.80;14.30;;;;;;;-0.08;97.21;102043.10;105061;1271;73003;-77
2022/12/02 02:19:13;;;;;;;33.90;16.60;;;;;;;-0.08;99.01;102042.26;104969;1279;62333;-78
2022/12/02 02:21:50;;;;;;;26.50;14.40;;;;;;;-0.04;99.56;102044.63;104999;1276;61148;-77
2022/12/02 02:24:19;;;;;;;27.80;14.70;;;;;;;-0.05;98.80;102050.98;105064;1273;71593;-76
2022/12/02 02:26:48;;;;;;;28.60;14.90;;;;;;;-0.04;98.08;102046.86;104837;1272;69307;-76
2022/12/02 02:29:17;;;;;;;27.40;13.90;;;;;;;-0.04;97.13;102051.47;105045;1281;70091;-79
2022/12/02 02:31:48;;;;;;;34.50;16.00;;;;;;;-0.11;96.37;102055.30;105136;1275;73703;-78
2022/12/02 02:34:17;;;;;;;23.00;13.60;;;;;;;-0.12;96.46;102061.63;104972;1275;61174;-80
2022/12/02 02:36:46;;;;;;;23.70;13.00;;;;;;;-0.11;96.18;102061.97;104783;1283;60314;-78
2022/12/02 02:39:15;;;;;;;27.30;14.00;;;;;;;-0.26;96.35;102063.43;105049;1275;71692;-79
2022/12/02 02:41:44;;;;;;;25.40;11.60;;;;;;;-0.18;96.33;102063.73;104936;1274;72169;-77
2022/12/02 02:44:15;;;;;;;31.10;15.80;;;;;;;-0.12;97.29;102062.30;104827;1282;67887;-77
2022/12/02 02:46:49;;;;;;;28.40;14.50;;;;;;;-0.08;99.14;102062.63;104987;1283;72472;-78
2022/12/02 02:49:18;;;;;;;27.00;14.40;;;;;;;-0.04;98.32;102062.60;104952;1276;61119;-73
2022/12/02 02:51:47;;;;;;;29.70;14.00;;;;;;;0.01;97.20;102061.55;104715;1279;61563;-73
2022/12/02 02:54:16;;;;;;;27.40;14.30;;;;;;;0.03;96.49;102058.45;104913;1272;72987;-73
2022/12/02 02:56:44;;;;;;;26.50;14.00;;;;;;;0.02;97.13;102055.21;104634;1283;73534;-72
2022/12/02 02:59:15;;;;;;;28.10;14.20;;;;;;;0.00;96.53;102052.47;104944;1279;69400;-73
2022/12/02 03:01:49;;;;;;;30.00;13.60;;;;;;;-0.01;96.04;102051.95;104797;1276;73598;-73
2022/12/02 03:04:19;;;;;;;;;;;;;;;-0.02;96.55;102047.87;104762;1282;62606;-74
2022/12/02 03:06:49;;;;;;;29.50;13.60;;;;;;;0.02;96.74;102047.85;104804;1269;60888;-73
2022/12/02 03:09:22;;;;;;;29.80;15.10;;;;;;;0.01;96.86;102053.33;104907;1274;72205;-75
2022/12/02 03:11:53;;;;;;;32.40;17.10;;;;;;;-0.11;96.14;102049.98;104893;1275;72774;-76
2022/12/02 03:14:22;;;;;;;32.20;14.80;;;;;;;-0.06;97.34;102048.75;104924;1279;68023;-74
2022/12/02 03:16:52;;;;;;;30.60;14.20;;;;;;;-0.01;98.29;102039.81;104882;1284;71987;-75
2022/12/02 03:19:22;;;;;;;32.90;14.20;;;;;;;0.00;97.43;102035.00;104974;1269;59851;-75
2022/12/02 03:21:51;;;;;;;28.50;14.50;;;;;;;-0.01;96.80;102038.09;105025;1269;60931;-75
2022/12/02 03:24:20;;;;;;;27.60;14.70;;;;;;;0.00;96.03;102038.77;104759;1278;72645;-76
2022/12/02 03:26:49;;;;;;;32.10;15.40;;;;;;;-0.03;97.60;102038.45;104780;1281;71976;-74
2022/12/02 03:29:19;;;;;;;28.60;15.70;;;;;;;0.02;97.53;102037.90;104796;1275;66755;-77
2022/12/02 03:31:48;;;;;;;27.20;14.90;;;;;;;-0.00;96.86;102039.63;105009;1275;72759;-75
2022/12/02 03:34:17;;;;;;;28.00;14.10;;;;;;;-0.02;97.09;102042.04;104765;1282;61168;-79
2022/12/02 03:36:46;;;;;;;23.30;13.20;;;;;;;-0.03;96.37;102043.94;105061;1275;59515;-78
2022/12/02 03:39:16;;;;;;;26.10;14.60;;;;;;;-0.12;96.13;102048.45;104831;1275;72620;-75
2022/12/02 03:41:46;;;;;;;25.00;14.40;;;;;;;-0.11;96.50;102045.87;104981;1279;71189;-76
2022/12/02 03:44:16;;;;;;;28.50;14.50;;;;;;;-0.08;95.99;102043.96;104823;1283;68982;-74
2022/12/02 03:46:46;;;;;;;28.00;14.00;;;;;;;-0.23;96.32;102044.93;104700;1275;73078;-76
2022/12/02 03:49:17;;;;;;;30.60;13.80;;;;;;;-0.16;96.29;102044.37;104710;1283;61752;-75
2022/12/02 03:51:47;;;;;;;30.10;14.00;;;;;;;-0.12;95.89;102045.70;104808;1281;59136;-75
2022/12/02 03:54:16;;;;;;;23.90;13.90;;;;;;;-0.08;97.71;102050.81;104728;1281;73573;-76
2022/12/02 03:56:45;;;;;;;27.00;13.60;;;;;;;-0.08;96.55;102048.92;104894;1278;68191;-74
2022/12/02 03:59:21;;;;;;;28.20;13.90;;;;;;;-0.09;96.61;102047.91;104758;1275;69757;-74
2022/12/02 04:01:50;;;;;;;27.30;13.50;;;;;;;-0.04;95.95;102047.37;105040;1269;73812;-76
2022/12/02 04:04:19;;;;;;;25.30;13.50;;;;;;;-0.06;95.58;102047.03;104874;1283;61935;-74
2022/12/02 04:06:47;;;;;;;24.50;12.90;;;;;;;-0.02;95.49;102050.26;104797;1271;61437;-74
2022/12/02 04:09:16;;;;;;;22.00;12.90;;;;;;;-0.02;95.00;102051.11;104854;1283;72056;-73
2022/12/02 04:11:45;;;;;;;29.40;13.40;;;;;;;-0.04;95.73;102049.77;104915;1275;69575;-74
2022/12/02 04:14:14;;;;;;;23.50;13.00;;;;;;;-0.02;96.72;102054.54;104965;1273;68115;-75
2022/12/02 04:16:43;;;;;;;25.50;12.80;;;;;;;0.03;96.81;102054.17;104712;1274;71440;-76
2022/12/02 04:19:14;;;;;;;24.70;13.60;;;;;;;-0.00;95.38;102053.16;104852;1275;61726;-75
2022/12/02 04:21:42;;;;;;;33.30;12.90;;;;;;;0.01;95.70;102057.44;104797;1279;61051;-75
2022/12/02 04:24:11;;;;;;;27.60;14.10;;;;;;;0.00;94.96;102054.02;104811;1270;72943;-76
2022/12/02 04:26:40;;;;;;;26.40;12.50;;;;;;;0.04;95.21;102051.23;104959;1269;71860;-77
2022/12/02 04:29:11;;;;;;;23.90;12.80;;;;;;;0.02;94.48;102050.91;104805;1274;69033;-77
2022/12/02 04:31:40;;;;;;;24.10;13.00;;;;;;;-0.05;94.44;102054.89;104889;1280;70447;-79
2022/12/02 04:34:09;;;;;;;22.20;11.20;;;;;;;-0.03;94.96;102058.48;104884;1275;61317;-77
2022/12/02 04:36:37;;;;;;;25.30;12.10;;;;;;;-0.09;94.56;102059.55;105040;1278;61508;-77
2022/12/02 04:39:06;;;;;;;21.40;11.60;;;;;;;-0.11;95.23;102061.28;105047;1275;71312;-76
2022/12/02 04:41:35;;;;;;;21.80;12.40;;;;;;;-0.08;94.77;102064.52;104828;1278;69545;-77
2022/12/02 04:44:04;;;;;;;27.50;12.80;;;;;;;-0.08;94.43;102069.66;105046;1274;70005;-76
2022/12/02 04:46:32;;;;;;;23.80;12.90;;;;;;;-0.08;95.67;102066.91;104982;1276;74159;-78
2022/12/02 04:49:03;;;;;;;24.90;13.40;;;;;;;-0.03;95.85;102073.73;104907;1275;60004;-76
2022/12/02 04:51:31;;;;;;;28.00;13.00;;;;;;;-0.02;95.80;102076.13;104848;1275;60615;-78
2022/12/02 04:54:00;;;;;;;25.40;13.30;;;;;;;-0.03;94.07;102079.89;104938;1275;73445;-78
2022/12/02 04:56:29;;;;;;;26.20;12.30;;;;;;;-0.04;94.30;102080.59;105068;1274;71636;-77
2022/12/02 04:58:58;;;;;;;29.10;13.60;;;;;;;-0.04;93.73;102080.59;105055;1278;68197;-76
2022/12/02 05:01:26;;;;;;;25.50;13.10;;;;;;;-0.09;93.90;102084.05;104905;1275;73751;-79
2022/12/02 05:03:55;;;;;;;22.00;12.40;;;;;;;-0.03;96.92;102085.55;104992;1275;60788;-78
2022/12/02 05:06:24;;;;;;;24.20;12.20;;;;;;;-0.02;96.21;102084.34;104974;1284;60469;-75
2022/12/02 05:08:53;;;;;;;23.30;12.50;;;;;;;-0.01;95.06;102087.60;105078;1274;72324;-77
2022/12/02 05:11:22;;;;;;;19.90;10.60;;;;;;;-0.00;94.00;102086.56;105280;1275;69581;-77
2022/12/02 05:13:51;;;;;;;19.90;11.00;;;;;;;-0.04;93.19;102087.10;105119;1284;69668;-74
2022/12/02 05:16:19;;;;;;;25.50;11.90;;;;;;;-0.09;94.73;102085.94;104863;1275;74110;-75
2022/12/02 05:18:48;;;;;;;22.20;11.90;;;;;;;-0.03;95.98;102086.76;104062;1270;1480389;-74
2022/12/02 05:21:17;;;;;;;21.00;12.00;;;;;;;-0.05;94.15;102086.41;105012;1269;59605;-75
2022/12/02 05:23:46;;;;;;;22.80;12.00;;;;;;;-0.05;94.86;102082.83;105124;1279;71956;-75
2022/12/02 05:26:15;;;;;;;20.20;11.20;;;;;;;-0.08;94.27;102078.21;105003;1279;72116;-78
2022/12/02 05:28:44;;;;;;;24.10;12.40;;;;;;;-0.15;93.81;102077.41;105042;1275;70722;-76
2022/12/02 05:31:13;;;;;;;21.80;12.80;;;;;;;-0.15;93.94;102077.58;104837;1280;73429;-75
2022/12/02 05:33:42;;;;;;;23.60;13.20;;;;;;;-0.16;93.65;102072.45;104953;1276;60799;-75
2022/12/02 05:36:11;;;;;;;20.70;11.40;;;;;;;-0.19;93.83;102075.21;104987;1283;59061;-77
2022/12/02 05:38:41;;;;;;;24.90;13.40;;;;;;;-0.20;94.48;102074.02;104928;1283;71562;-74
2022/12/02 05:41:09;;;;;;;22.20;13.30;;;;;;;-0.19;94.47;102078.28;104806;1275;71554;-76
2022/12/02 05:43:42;;;;;;;27.40;14.00;;;;;;;-0.20;93.61;102079.50;104888;1275;70113;-76
2022/12/02 05:46:21;;;;;;;24.20;12.40;;;;;;;-0.24;94.86;102079.17;104800;1280;71821;-77
2022/12/02 05:48:49;;;;;;;25.80;12.80;;;;;;;-0.24;94.69;102085.17;104851;1282;61910;-76
2022/12/02 05:51:21;;;;;;;28.30;13.50;;;;;;;-0.22;94.06;102087.20;104749;1277;61488;-76
2022/12/02 05:53:50;;;;;;;24.20;13.50;;;;;;;-0.20;94.96;102087.04;104875;1280;72136;-78
2022/12/02 05:56:25;;;;;;;24.40;13.10;;;;;;;-0.20;93.86;102094.74;104805;1281;69378;-76
2022/12/02 05:59:06;;;;;;;24.10;12.60;;;;;;;-0.13;96.05;102092.11;104774;1278;69679;-77
2022/12/02 06:01:39;;;;;;;24.90;12.80;;;;;;;-0.16;94.11;102087.86;104732;1286;74519;-76
2022/12/02 06:04:18;;;;;;;23.90;11.90;;;;;;;-0.13;93.50;102088.00;104708;1282;60237;-76
2022/12/02 06:06:49;;;;;;;20.40;10.70;;;;;;;-0.14;93.08;102089.39;104816;1284;62393;-77
2022/12/02 06:09:31;;;;;;;21.50;11.50;;;;;;;-0.11;94.08;102085.77;105038;1284;72268;-75
2022/12/02 06:12:02;;;;;;;18.50;11.50;;;;;;;-0.14;92.99;102085.96;105006;1275;70279;-77
2022/12/02 06:14:34;;;;;;;23.70;10.80;;;;;;;-0.13;93.28;102084.07;104822;1278;70492;-79
2022/12/02 06:17:15;;;;;;;22.80;11.80;;;;;;;-0.12;92.90;102087.66;104916;1282;73482;-78
2022/12/02 06:19:54;;;;;;;22.50;11.50;;;;;;;-0.18;93.45;102088.89;104697;1275;62020;-78
2022/12/02 06:22:29;;;;;;;25.90;13.80;;;;;;;-0.16;93.42;102091.11;104902;1272;59673;-78
2022/12/02 06:25:08;;;;;;;20.10;11.60;;;;;;;-0.17;93.30;102086.84;104718;1282;71740;-79
2022/12/02 06:27:37;;;;;;;25.60;11.60;;;;;;;-0.18;93.20;102086.84;104791;1281;70913;-78
2022/12/02 06:30:14;;;;;;;22.20;12.80;;;;;;;-0.21;93.99;102081.05;104884;1275;70222;-79
2022/12/02 06:32:52;;;;;;;24.30;12.10;;;;;;;-0.15;94.43;102083.91;104748;1278;72076;-79
2022/12/02 06:35:32;;;;;;;23.30;12.30;;;;;;;-0.13;93.28;102082.53;104830;1275;59894;-79
2022/12/02 06:38:12;;;;;;;25.20;13.10;;;;;;;-0.10;93.25;102087.14;105061;1275;61166;-81
2022/12/02 06:40:42;;;;;;;25.30;12.00;;;;;;;-0.06;93.74;102090.20;105082;1270;72466;-80
2022/12/02 06:43:21;;;;;;;23.20;12.40;;;;;;;-0.06;92.83;102087.28;104934;1275;69726;-80
2022/12/02 06:45:50;;;;;;;22.30;11.60;;;;;;;-0.10;93.18;102085.42;104810;1277;70436;-82
2022/12/02 06:48:38;;;;;;;23.60;12.60;;;;;;;-0.04;92.78;102081.27;104994;1274;73691;-83
2022/12/02 06:51:17;;;;;;;22.90;12.40;;;;;;;0.01;92.50;102077.30;104848;1275;60723;-82
2022/12/02 06:53:47;;;;;;;21.50;11.40;;;;;;;-0.04;92.24;102075.61;104850;1283;60224;-82
2022/12/02 06:56:21;;;;;;;22.80;12.30;;;;;;;-0.05;92.12;102073.06;104729;1284;74438;-76
2022/12/02 06:59:03;;;;;;;25.40;12.10;;;;;;;-0.16;93.09;102075.37;104946;1276;70935;-82
2022/12/02 07:01:43;;;;;;;22.30;11.60;;;;;;;0.02;92.58;102074.73;105073;1275;68484;-77
2022/12/02 07:04:35;;;;;;;25.00;13.10;;;;;;;0.02;92.03;102078.33;104966;1281;72003;-81
2022/12/02 07:07:28;;;;;;;25.00;12.60;;;;;;;0.12;92.65;102080.30;105012;1281;61286;-76
2022/12/02 07:10:06;;;;;;;26.30;12.70;;;;;;;0.24;92.38;102083.13;104930;1284;59065;-78
2022/12/02 07:12:47;;;;;;;24.10;12.20;;;;;;;0.32;92.08;102085.64;104779;1284;73042;-78
2022/12/02 07:15:26;;;;;;;24.10;12.20;;;;;;;0.40;91.06;102085.23;104904;1277;71417;-79
2022/12/02 07:17:58;;;;;;;23.10;12.50;;;;;;;0.47;91.23;102087.40;104876;1275;70486;-79
2022/12/02 07:20:35;;;;;;;26.00;12.50;;;;;;;0.50;90.66;102089.77;104881;1280;70688;-77
2022/12/02 07:23:13;;;;;;;25.60;12.20;;;;;;;0.55;90.81;102085.45;104789;1278;61625;-78
2022/12/02 07:25:59;;;;;;;20.10;11.50;;;;;;;0.68;90.20;102090.13;104940;1282;59541;-78
2022/12/02 07:28:43;;;;;;;20.80;11.50;;;;;;;0.70;90.53;102093.53;104976;1277;72073;-78
2022/12/02 07:31:27;;;;;;;19.70;11.30;;;;;;;0.73;88.30;102095.05;105168;1273;69573;-78
2022/12/02 07:33:56;;;;;;;19.30;10.80;;;;;;;0.84;88.62;102101.11;104946;1282;69677;-78
2022/12/02 07:36:24;;;;;;;22.00;11.60;;;;;;;0.93;91.26;102095.87;104920;1275;73613;-75
2022/12/02 07:38:53;;;;;;;32.20;14.90;;;;;;;0.80;87.76;102101.67;105061;1281;60814;-75
2022/12/02 07:41:34;;;;;;;23.40;10.90;;;;;;;0.97;89.13;102101.15;105075;1275;59094;-76
2022/12/02 07:44:05;;;;;;;23.60;11.50;;;;;;;1.12;88.47;102104.26;104888;1278;72724;-78
2022/12/02 07:46:34;;;;;;;22.00;10.90;;;;;;;1.08;87.08;102105.34;104980;1275;69312;-76
2022/12/02 07:49:03;;;;;;;23.80;11.90;;;;;;;1.04;86.37;102101.95;105078;1282;69583;-76
2022/12/02 07:51:31;;;;;;;19.90;11.70;;;;;;;1.07;86.19;102098.48;104987;1279;74192;-75
2022/12/02 07:54:00;;;;;;;24.50;11.50;;;;;;;0.96;85.17;102098.08;104849;1281;59538;-75
2022/12/02 07:56:29;;;;;;;25.20;12.20;;;;;;;0.90;85.81;102096.25;104918;1272;61188;-75
2022/12/02 07:58:59;;;;;;;24.30;11.70;;;;;;;0.90;86.60;102094.71;104865;1278;72547;-74
2022/12/02 08:01:40;;;;;;;25.70;12.70;;;;;;;0.92;86.12;102096.06;104916;1279;73521;-75
2022/12/02 08:04:09;;;;;;;22.50;11.80;;;;;;;0.94;86.66;102097.08;104804;1272;70186;-74
2022/12/02 08:06:38;;;;;;;20.60;11.10;;;;;;;0.94;86.56;102094.84;104733;1277;72220;-74
2022/12/02 08:09:09;;;;;;;18.50;9.90;;;;;;;1.01;85.71;102098.38;104996;1270;59066;-75
2022/12/02 08:11:38;;;;;;;21.50;11.40;;;;;;;0.89;85.43;102099.86;104983;1279;61878;-74
2022/12/02 08:14:07;;;;;;;21.90;11.90;;;;;;;0.92;85.56;102100.18;105039;1279;70789;-74
2022/12/02 08:16:36;;;;;;;18.80;11.10;;;;;;;1.02;85.33;102099.90;104829;1272;71711;-72
2022/12/02 08:19:05;;;;;;;22.50;11.50;;;;;;;1.00;85.72;102100.96;104994;1275;70279;-73
2022/12/02 08:21:33;;;;;;;22.90;11.20;;;;;;;1.15;85.36;102099.27;104987;1275;73284;-73
2022/12/02 08:24:04;;;;;;;26.40;11.80;;;;;;;1.26;85.65;102106.68;104979;1275;61110;-75
2022/12/02 08:26:33;;;;;;;21.90;10.70;;;;;;;1.30;85.17;102107.48;104904;1280;59064;-73
2022/12/02 08:29:02;;;;;;;20.90;12.30;;;;;;;1.40;84.53;102105.13;104844;1279;70129;-73
2022/12/02 08:31:31;;;;;;;21.30;10.80;;;;;;;1.49;84.18;102101.59;104979;1283;70158;-72
2022/12/02 08:34:00;;;;;;;21.90;11.50;;;;;;;1.35;83.74;102099.70;104967;1284;67081;-73
2022/12/02 08:36:34;;;;;;;21.20;11.40;;;;;;;1.36;83.41;102097.45;104916;1283;73809;-73
2022/12/02 08:39:04;;;;;;;21.90;10.90;;;;;;;1.43;83.06;102095.15;104888;1275;61701;-73
2022/12/02 08:41:37;;;;;;;24.70;13.50;;;;;;;1.35;83.52;102093.88;105007;1283;62115;-73
2022/12/02 08:44:06;;;;;;;20.50;10.90;;;;;;;1.55;85.38;102093.27;104605;1278;71944;-73
2022/12/02 08:46:35;;;;;;;19.50;10.50;;;;;;;1.58;82.19;102091.34;104809;1277;72045;-72
2022/12/02 08:49:07;;;;;;;19.80;11.10;;;;;;;1.51;81.76;102089.55;104973;1277;68483;-74
2022/12/02 08:51:36;;;;;;;19.80;10.60;;;;;;;1.43;82.42;102086.05;104940;1275;74685;-77
2022/12/02 08:54:05;;;;;;;22.20;10.60;;;;;;;1.48;82.73;102087.02;105084;1279;61335;-73
2022/12/02 08:56:34;;;;;;;20.90;10.70;;;;;;;1.61;82.99;102085.80;104941;1277;60152;-75
2022/12/02 08:59:03;;;;;;;22.10;11.60;;;;;;;1.51;82.78;102090.92;104990;1279;72496;-76
2022/12/02 09:01:32;;;;;;;19.60;11.00;;;;;;;1.60;82.87;102086.85;104968;1280;69514;-74
2022/12/02 09:04:01;;;;;;;17.80;10.60;;;;;;;1.58;80.84;102084.99;105036;1284;67834;-74
2022/12/02 09:06:30;;;;;;;21.40;11.00;;;;;;;1.72;82.31;102086.17;105196;1275;71392;-73
2022/12/02 09:09:04;;;;;;;22.60;10.30;;;;;;;1.80;81.16;102088.30;104768;1280;59637;-74
2022/12/02 09:11:33;;;;;;;22.30;9.90;;;;;;;1.71;81.67;102083.61;104795;1280;61696;-74
2022/12/02 09:14:02;;;;;;;16.40;8.60;;;;;;;1.86;82.01;102087.02;105290;1280;73102;-81
2022/12/02 09:16:31;;;;;;;17.30;10.40;;;;;;;1.91;81.58;102081.79;105416;1280;69593;-81
2022/12/02 09:19:00;;;;;;;21.10;11.00;;;;;;;1.82;81.63;102079.00;105382;1275;68179;-79
2022/12/02 09:21:28;;;;;;;17.30;9.40;;;;;;;1.91;81.43;102076.80;104964;1278;75302;-79
2022/12/02 09:23:57;;;;;;;19.40;9.80;;;;;;;2.15;81.39;102068.55;105034;1284;59148;-75
2022/12/02 09:26:26;;;;;;;19.30;9.60;;;;;;;2.08;79.48;102064.35;105037;1275;59430;-80
2022/12/02 09:28:55;;;;;;;19.30;11.20;;;;;;;2.23;79.66;102061.71;105467;1274;71850;-79
2022/12/02 09:31:23;;;;;;;15.70;9.60;;;;;;;2.19;79.79;102060.57;104853;1273;71596;-79
2022/12/02 09:33:53;;;;;;;23.70;11.40;;;;;;;2.05;79.58;102065.61;104992;1275;70418;-79
2022/12/02 09:36:22;;;;;;;18.70;9.40;;;;;;;2.09;80.23;102059.17;105119;1279;74382;-80
2022/12/02 09:38:50;;;;;;;19.90;11.90;;;;;;;2.05;80.19;102057.19;104782;1275;60824;-78
2022/12/02 09:41:20;;;;;;;25.80;12.50;;;;;;;2.01;80.13;102052.60;105064;1277;61351;-79
2022/12/02 09:43:49;;;;;;;24.30;11.40;;;;;;;2.15;80.17;102056.69;105045;1274;72604;-80
2022/12/02 09:46:18;;;;;;;24.70;12.40;;;;;;;1.93;79.82;102050.14;104947;1280;70891;-80
2022/12/02 09:48:52;;;;;;;20.30;10.40;;;;;;;2.17;80.86;102049.59;105097;1279;68123;-78
2022/12/02 09:51:22;;;;;;;21.10;10.60;;;;;;;2.23;80.27;102045.38;105027;1279;73821;-77
2022/12/02 09:53:51;;;;;;;25.70;13.20;;;;;;;2.19;80.01;102048.03;104815;1282;61371;-77
2022/12/02 09:56:22;;;;;;;21.90;11.50;;;;;;;1.94;80.06;102047.21;104752;1286;60273;-77
2022/12/02 09:58:54;;;;;;;24.10;11.30;;;;;;;1.78;81.85;102043.32;104798;1279;72691;-79
2022/12/02 10:01:26;;;;;;;22.80;12.10;;;;;;;1.85;81.75;102043.39;104625;1280;61475;-78
2022/12/02 10:03:55;;;;;;;19.90;11.80;;;;;;;1.80;80.84;102042.77;104965;1275;69764;-76
2022/12/02 10:06:27;;;;;;;21.30;10.70;;;;;;;1.67;81.48;102037.64;104687;1270;72535;-77
2022/12/02 10:08:57;;;;;;;19.50;12.00;;;;;;;1.85;81.64;102038.60;104568;1286;57709;-77
2022/12/02 10:11:33;;;;;;;18.90;10.70;;;;;;;1.84;80.54;102040.66;104812;1280;59137;-78
2022/12/02 10:14:05;;;;;;;21.10;11.10;;;;;;;1.97;81.55;102041.84;104561;1280;73094;-78
2022/12/02 10:16:34;;;;;;;23.20;10.90;;;;;;;2.04;79.88;102040.70;104607;1280;70768;-75
2022/12/02 10:19:05;;;;;;;16.00;9.80;;;;;;;2.00;79.82;102039.40;104566;1280;69695;-77
2022/12/02 10:21:35;;;;;;;18.90;9.70;;;;;;;2.12;80.37;102038.52;104535;1287;74046;-75
2022/12/02 10:24:08;;;;;;;19.00;10.40;;;;;;;2.09;79.84;102039.77;104659;1275;59450;-78
2022/12/02 10:26:55;;;;;;;22.80;11.40;;;;;;;2.06;80.13;102036.89;104498;1277;59631;-77
2022/12/02 10:29:27;;;;;;;21.00;10.10;;;;;;;1.93;79.52;102029.54;104572;1273;63084;-76
2022/12/02 10:32:06;;;;;;;23.70;11.70;;;;;;;1.91;80.81;102031.63;104458;1281;60946;-76
2022/12/02 10:34:35;;;;;;;19.60;11.60;;;;;;;1.82;79.96;102033.13;104577;1271;59524;-75
2022/12/02 10:37:37;;;;;;;56.60;24.10;;;;;;;1.91;81.64;102036.25;104432;1283;72006;-75
2022/12/02 10:40:18;;;;;;;21.20;12.30;;;;;;;1.98;80.40;102034.78;104291;1281;61179;-76
2022/12/02 10:43:05;;;;;;;20.50;12.10;;;;;;;1.88;81.13;102035.96;104582;1278;61572;-74
2022/12/02 10:45:34;;;;;;;20.20;11.50;;;;;;;1.68;81.18;102032.30;104562;1278;74000;-77
2022/12/02 10:48:16;;;;;;;19.00;11.60;;;;;;;1.76;83.55;102034.26;104619;1277;71523;-76
2022/12/02 10:50:45;;;;;;;24.80;12.70;;;;;;;1.75;81.75;102033.40;104499;1282;71418;-77
2022/12/02 10:53:17;;;;;;;23.40;11.80;;;;;;;1.76;82.37;102033.55;104703;1287;73868;-76
2022/12/02 10:55:46;;;;;;;23.90;12.40;;;;;;;1.70;81.60;102037.60;104619;1277;61413;-75
2022/12/02 10:58:29;;;;;;;20.80;12.30;;;;;;;1.69;81.79;102038.81;104681;1283;60401;-75
2022/12/02 11:00:58;;;;;;;;;;;;;;;1.59;81.80;102037.93;104674;1281;63246;-76
2022/12/02 11:03:27;;;;;;;24.10;12.20;;;;;;;1.60;82.71;102039.80;104787;1284;71532;-76
2022/12/02 11:05:58;;;;;;;23.60;12.40;;;;;;;1.62;82.83;102039.61;104768;1284;68069;-76
2022/12/02 11:08:28;;;;;;;25.20;13.10;;;;;;;1.68;83.39;102039.17;104662;1277;72858;-75
2022/12/02 11:11:16;;;;;;;23.40;11.20;;;;;;;1.70;82.83;102041.38;104678;1283;59114;-74
2022/12/02 11:13:57;;;;;;;24.50;13.10;;;;;;;1.77;81.54;102038.38;104750;1282;60513;-74
2022/12/02 11:16:26;;;;;;;21.20;12.20;;;;;;;1.63;81.91;102041.30;104762;1282;63818;-75
2022/12/02 11:19:08;;;;;;;23.20;13.00;;;;;;;1.68;85.90;102042.61;104863;1275;71107;-76
2022/12/02 11:21:44;;;;;;;27.70;13.80;;;;;;;1.65;84.00;102041.11;104709;1285;69908;-75
2022/12/02 11:24:22;;;;;;;25.20;13.80;;;;;;;1.76;83.81;102039.08;104679;1276;73106;-74
2022/12/02 11:27:03;;;;;;;23.20;14.00;;;;;;;1.70;82.51;102036.23;104851;1275;58912;-75
2022/12/02 11:29:40;;;;;;;25.20;13.80;;;;;;;1.55;82.98;102038.67;105022;1275;61480;-75